createdAt,value
2018-04-11T00:01:58.681Z,5.13
2018-04-11T00:04:25.221Z,5.97
2018-04-11T00:06:55.406Z,4.60
2018-04-11T00:09:21.969Z,4.63
2018-04-11T00:11:48.541Z,4.80
2018-04-11T00:14:15.110Z,5.30
2018-04-11T00:16:41.765Z,4.87
2018-04-11T00:19:08.314Z,6.07
2018-04-11T00:21:34.897Z,5.53
2018-04-11T00:24:01.481Z,5.80
2018-04-11T00:26:28.085Z,5.97
2018-04-11T00:28:54.658Z,5.47
2018-04-11T00:31:21.243Z,11.43
2018-04-11T00:33:47.803Z,5.97
2018-04-11T00:36:14.373Z,9.17
2018-04-11T00:38:40.949Z,9.30
2018-04-11T00:41:07.518Z,9.00
2018-04-11T00:43:34.100Z,10.03
2018-04-11T00:46:00.668Z,10.10
2018-04-11T00:48:27.240Z,9.03
2018-04-11T00:50:53.813Z,10.93
2018-04-11T00:53:26.237Z,8.90
2018-04-11T00:55:52.801Z,8.90
2018-04-11T00:58:19.435Z,9.30
2018-04-11T01:00:46.001Z,8.07
2018-04-11T01:03:12.573Z,9.20
2018-04-11T01:05:39.173Z,7.63
2018-04-11T01:08:05.819Z,8.87
2018-04-11T01:10:32.385Z,7.57
2018-04-11T01:12:58.992Z,12.50
2018-04-11T01:15:25.530Z,10.50
2018-04-11T01:17:52.093Z,7.20
2018-04-11T01:20:18.675Z,6.90
2018-04-11T01:22:45.237Z,8.00
2018-04-11T01:25:11.882Z,6.57
2018-04-11T01:27:38.443Z,7.83
2018-04-11T01:30:05.014Z,7.03
2018-04-11T01:32:31.579Z,5.97
2018-04-11T01:34:58.149Z,5.97
2018-04-11T01:37:24.725Z,6.27
2018-04-11T01:39:51.351Z,7.87
2018-04-11T01:42:17.893Z,7.67
2018-04-11T01:44:44.469Z,10.33
2018-04-11T01:47:11.046Z,6.53
2018-04-11T01:49:37.620Z,6.27
2018-04-11T01:52:04.194Z,7.70
2018-04-11T01:54:30.753Z,6.70
2018-04-11T01:56:57.402Z,6.50
2018-04-11T01:59:23.965Z,10.03
2018-04-11T02:01:50.542Z,6.53
2018-04-11T02:04:17.113Z,7.30
2018-04-11T02:06:43.697Z,6.93
2018-04-11T02:09:10.254Z,7.80
2018-04-11T02:11:36.829Z,7.43
2018-04-11T02:14:03.397Z,7.73
2018-04-11T02:16:29.965Z,7.83
2018-04-11T02:18:56.543Z,8.33
2018-04-11T02:21:23.109Z,9.23
2018-04-11T02:23:49.673Z,8.83
2018-04-11T02:26:16.249Z,9.60
2018-04-11T02:28:42.817Z,9.90
2018-04-11T02:31:09.393Z,12.03
2018-04-11T02:33:35.969Z,9.20
2018-04-11T02:36:02.543Z,9.33
2018-04-11T02:38:29.114Z,10.83
2018-04-11T02:40:56.534Z,11.10
2018-04-11T02:43:23.109Z,10.57
2018-04-11T02:45:49.676Z,8.97
2018-04-11T02:48:16.257Z,12.33
2018-04-11T02:50:42.825Z,9.70
2018-04-11T02:53:09.405Z,10.93
2018-04-11T02:55:36.089Z,8.93
2018-04-11T02:58:02.656Z,11.83
2018-04-11T03:00:29.225Z,9.50
2018-04-11T03:02:55.805Z,10.90
2018-04-11T03:05:22.377Z,11.00
2018-04-11T03:07:48.945Z,10.00
2018-04-11T03:10:15.522Z,12.87
2018-04-11T03:12:42.133Z,11.67
2018-04-11T03:15:08.714Z,12.07
2018-04-11T03:17:35.285Z,12.63
2018-04-11T03:20:01.867Z,10.83
2018-04-11T03:22:28.437Z,11.43
2018-04-11T03:24:55.863Z,11.87
2018-04-11T03:27:22.434Z,11.60
2018-04-11T03:29:49.012Z,11.60
2018-04-11T03:32:15.585Z,12.53
2018-04-11T03:34:42.161Z,11.80
2018-04-11T03:37:08.729Z,11.87
2018-04-11T03:39:35.322Z,13.00
2018-04-11T03:42:01.922Z,16.50
2018-04-11T03:44:28.479Z,13.60
2018-04-11T03:46:55.073Z,16.90
2018-04-11T03:49:21.653Z,14.50
2018-04-11T03:51:48.235Z,13.30
2018-04-11T03:54:14.813Z,12.73
2018-04-11T03:56:41.388Z,13.80
2018-04-11T03:59:07.967Z,18.27
2018-04-11T04:01:34.591Z,14.07
2018-04-11T04:04:01.148Z,17.93
2018-04-11T04:06:28.716Z,14.90
2018-04-11T04:08:55.967Z,15.80
2018-04-11T04:11:22.533Z,16.40
2018-04-11T04:13:54.953Z,16.50
2018-04-11T04:16:27.465Z,21.30
2018-04-11T04:18:59.874Z,16.33
2018-04-11T04:21:26.445Z,17.23
2018-04-11T04:23:53.025Z,15.83
2018-04-11T04:26:19.597Z,16.40
2018-04-11T04:28:46.195Z,17.83
2018-04-11T04:31:12.769Z,18.53
2018-04-11T04:33:39.352Z,16.10
2018-04-11T04:36:05.932Z,18.93
2018-04-11T04:38:32.509Z,17.83
2018-04-11T04:40:59.088Z,17.40
2018-04-11T04:43:25.670Z,21.80
2018-04-11T04:45:52.254Z,16.07
2018-04-11T04:48:18.830Z,19.40
2018-04-11T04:50:45.405Z,21.37
2018-04-11T04:53:11.985Z,24.03
2018-04-11T04:55:38.562Z,22.40
2018-04-11T04:58:05.144Z,18.03
2018-04-11T05:00:31.714Z,19.43
2018-04-11T05:02:58.377Z,25.83
2018-04-11T05:05:24.957Z,23.30
2018-04-11T05:07:51.532Z,24.20
2018-04-11T05:10:18.117Z,25.00
2018-04-11T05:12:44.695Z,25.80
2018-04-11T05:15:11.294Z,28.97
2018-04-11T05:17:37.861Z,29.90
2018-04-11T05:20:04.454Z,24.37
2018-04-11T05:22:31.035Z,27.90
2018-04-11T05:24:57.621Z,28.00
2018-04-11T05:27:24.200Z,22.23
2018-04-11T05:29:50.774Z,28.87
2018-04-11T05:32:17.349Z,26.27
2018-04-11T05:34:43.953Z,29.10
2018-04-11T05:37:10.532Z,26.37
2018-04-11T05:39:37.370Z,22.70
2018-04-11T05:42:03.946Z,25.40
2018-04-11T05:44:30.517Z,26.57
2018-04-11T05:46:57.098Z,27.83
2018-04-11T05:49:23.933Z,27.30
2018-04-11T05:51:50.513Z,24.93
2018-04-11T05:54:17.081Z,26.57
2018-04-11T05:56:44.217Z,27.10
2018-04-11T05:59:10.797Z,27.63
2018-04-11T06:01:37.438Z,27.60
2018-04-11T06:04:04.051Z,26.17
2018-04-11T06:06:30.606Z,28.10
2018-04-11T06:08:57.179Z,28.87
2018-04-11T06:11:23.773Z,24.43
2018-04-11T06:13:50.354Z,24.50
2018-04-11T06:16:16.942Z,23.10
2018-04-11T06:18:43.533Z,29.37
2018-04-11T06:21:10.103Z,30.90
2018-04-11T06:23:36.699Z,29.03
2018-04-11T06:26:03.270Z,26.73
2018-04-11T06:28:29.853Z,25.83
2018-04-11T06:30:56.429Z,25.50
2018-04-11T06:33:23.005Z,30.10
2018-04-11T06:35:49.582Z,27.37
2018-04-11T06:38:16.169Z,25.00
2018-04-11T06:40:42.749Z,25.37
2018-04-11T06:43:09.330Z,26.47
2018-04-11T06:45:35.922Z,25.10
2018-04-11T06:48:02.501Z,24.67
2018-04-11T06:50:29.109Z,25.87
2018-04-11T06:52:55.678Z,26.17
2018-04-11T06:55:22.257Z,30.17
2018-04-11T06:57:48.837Z,26.60
2018-04-11T07:00:15.418Z,24.93
2018-04-11T07:02:42.001Z,30.43
2018-04-11T07:05:08.579Z,29.13
2018-04-11T07:07:35.154Z,28.00
2018-04-11T07:10:01.730Z,30.53
2018-04-11T07:12:28.311Z,27.13
2018-04-11T07:14:54.979Z,29.07
2018-04-11T07:17:21.537Z,30.43
2018-04-11T07:19:48.117Z,25.27
2018-04-11T07:22:14.697Z,27.57
2018-04-11T07:24:41.280Z,28.70
2018-04-11T07:27:07.865Z,32.50
2018-04-11T07:29:34.445Z,30.50
2018-04-11T07:32:01.050Z,29.77
2018-04-11T07:34:27.623Z,26.40
2018-04-11T07:36:54.211Z,25.70
2018-04-11T07:39:20.818Z,25.43
2018-04-11T07:41:47.396Z,23.57
2018-04-11T07:44:14.007Z,26.60
2018-04-11T07:46:40.626Z,22.53
2018-04-11T07:49:07.217Z,25.23
2018-04-11T07:51:33.811Z,24.57
2018-04-11T07:54:00.386Z,23.70
2018-04-11T07:56:26.967Z,24.00
2018-04-11T07:58:53.562Z,26.90
2018-04-11T08:01:20.165Z,23.97
2018-04-11T08:03:46.717Z,21.80
2018-04-11T08:06:13.294Z,23.63
2018-04-11T08:08:39.877Z,19.77
2018-04-11T08:11:06.467Z,17.23
2018-04-11T08:13:33.054Z,18.83
2018-04-11T08:15:59.629Z,15.90
2018-04-11T08:18:26.259Z,15.03
2018-04-11T08:20:52.838Z,18.33
2018-04-11T08:23:19.482Z,17.77
2018-04-11T08:25:46.005Z,16.23
2018-04-11T08:28:12.587Z,15.80
2018-04-11T08:30:39.161Z,15.90
2018-04-11T08:33:05.741Z,16.03
2018-04-11T08:35:32.326Z,17.10
2018-04-11T08:37:58.905Z,14.63
2018-04-11T08:40:25.488Z,14.87
2018-04-11T08:42:52.057Z,18.30
2018-04-11T08:45:18.638Z,13.40
2018-04-11T08:47:45.230Z,16.80
2018-04-11T08:50:11.881Z,14.10
2018-04-11T08:52:38.491Z,14.80
2018-04-11T08:55:05.072Z,12.57
2018-04-11T08:57:31.656Z,14.37
2018-04-11T08:59:58.236Z,14.17
2018-04-11T09:02:24.830Z,15.30
2018-04-11T09:04:51.410Z,11.60
2018-04-11T09:07:18.130Z,13.40
2018-04-11T09:09:44.726Z,14.90
2018-04-11T09:12:11.297Z,13.80
2018-04-11T09:14:37.874Z,14.73
2018-04-11T09:17:04.449Z,15.27
2018-04-11T09:19:31.035Z,12.43
2018-04-11T09:21:57.615Z,14.27
2018-04-11T09:24:24.201Z,15.10
2018-04-11T09:26:50.799Z,14.33
2018-04-11T09:29:17.369Z,15.17
2018-04-11T09:31:43.997Z,15.97
2018-04-11T09:34:10.536Z,14.60
2018-04-11T09:36:37.117Z,15.93
2018-04-11T09:39:03.710Z,17.20
2018-04-11T09:41:30.310Z,15.23
2018-04-11T09:43:56.885Z,18.13
2018-04-11T09:46:23.457Z,16.07
2018-04-11T09:48:50.045Z,17.47
2018-04-11T09:51:16.625Z,21.33
2018-04-11T09:53:43.233Z,21.53
2018-04-11T09:56:09.814Z,20.40
2018-04-11T09:58:36.404Z,18.77
2018-04-11T10:01:04.765Z,20.33
2018-04-11T10:03:31.336Z,22.43
2018-04-11T10:05:57.985Z,21.90
2018-04-11T10:08:24.549Z,22.43
2018-04-11T10:10:51.140Z,19.37
2018-04-11T10:13:18.020Z,22.13
2018-04-11T10:15:44.589Z,22.40
2018-04-11T10:18:11.165Z,23.17
2018-04-11T10:20:38.069Z,22.80
2018-04-11T10:23:04.642Z,25.03
2018-04-11T10:25:31.236Z,22.70
2018-04-11T10:27:57.794Z,24.80
2018-04-11T10:30:24.393Z,25.60
2018-04-11T10:32:50.999Z,25.40
2018-04-11T10:35:17.624Z,24.37
2018-04-11T10:37:44.221Z,23.83
2018-04-11T10:40:10.793Z,24.70
2018-04-11T10:42:37.369Z,26.60
2018-04-11T10:45:03.947Z,25.20
2018-04-11T10:47:30.541Z,26.03
2018-04-11T10:49:57.107Z,27.00
2018-04-11T10:52:23.681Z,25.10
2018-04-11T10:54:50.257Z,28.20
2018-04-11T10:57:16.846Z,33.50
2018-04-11T10:59:43.429Z,30.80
2018-04-11T11:02:10.016Z,28.23
2018-04-11T11:04:36.581Z,31.87
2018-04-11T11:07:03.161Z,33.30
2018-04-11T11:09:29.781Z,30.90
2018-04-11T11:11:56.382Z,32.50
2018-04-11T11:14:22.959Z,34.10
2018-04-11T11:16:49.529Z,34.53
2018-04-11T11:19:16.106Z,35.93
2018-04-11T11:21:42.686Z,29.37
2018-04-11T11:24:09.286Z,30.77
2018-04-11T11:26:35.853Z,28.70
2018-04-11T11:29:02.438Z,28.50
2018-04-11T11:31:29.029Z,31.17
2018-04-11T11:33:55.606Z,28.80
2018-04-11T11:36:22.233Z,32.37
2018-04-11T11:38:48.875Z,30.57
2018-04-11T11:41:15.403Z,29.70
2018-04-11T11:43:41.976Z,28.97
2018-04-11T11:46:08.562Z,27.73
2018-04-11T11:48:35.160Z,33.37
2018-04-11T11:51:01.735Z,30.70
2018-04-11T11:53:28.333Z,26.93
2018-04-11T11:55:54.920Z,28.70
2018-04-11T11:58:21.625Z,27.37
2018-04-11T12:00:48.196Z,26.17
2018-04-11T12:03:14.769Z,29.10
2018-04-11T12:05:41.346Z,30.90
2018-04-11T12:08:07.933Z,27.97
2018-04-11T12:10:34.505Z,29.40
2018-04-11T12:13:01.440Z,31.07
2018-04-11T12:15:28.012Z,29.60
2018-04-11T12:17:54.594Z,25.20
2018-04-11T12:20:21.171Z,25.87
2018-04-11T12:22:47.815Z,30.40
2018-04-11T12:25:14.374Z,28.50
2018-04-11T12:27:40.949Z,29.87
2018-04-11T12:30:07.550Z,25.33
2018-04-11T12:32:34.137Z,26.53
2018-04-11T12:35:00.724Z,26.70
2018-04-11T12:37:27.348Z,27.60
2018-04-11T12:39:53.917Z,33.83
2018-04-11T12:42:20.496Z,32.00
2018-04-11T12:44:47.093Z,36.43
2018-04-11T12:47:13.670Z,34.20
2018-04-11T12:49:40.258Z,30.93
2018-04-11T12:52:06.829Z,28.47
2018-04-11T12:54:33.445Z,36.90
2018-04-11T12:57:00.025Z,32.20
2018-04-11T12:59:26.605Z,32.73
2018-04-11T13:01:53.201Z,34.00
2018-04-11T13:04:19.774Z,31.90
2018-04-11T13:06:46.349Z,25.67
2018-04-11T13:09:12.930Z,29.73
2018-04-11T13:11:39.596Z,31.23
2018-04-11T13:14:06.186Z,28.50
2018-04-11T13:16:32.795Z,32.00
2018-04-11T13:18:59.370Z,35.10
2018-04-11T13:21:25.946Z,29.97
2018-04-11T13:23:52.518Z,31.83
2018-04-11T13:26:19.100Z,33.70
2018-04-11T13:28:45.753Z,30.10
2018-04-11T13:31:12.330Z,33.07
2018-04-11T13:33:38.937Z,35.00
2018-04-11T13:36:05.511Z,33.33
2018-04-11T13:38:32.420Z,35.53
2018-04-11T13:40:59.002Z,29.97
2018-04-11T13:43:25.785Z,30.40
2018-04-11T13:45:52.369Z,22.50
2018-04-11T13:48:18.947Z,24.70
2018-04-11T13:50:45.561Z,25.83
2018-04-11T13:53:12.167Z,24.60
2018-04-11T13:55:38.738Z,25.13
2018-04-11T13:58:05.326Z,20.80
2018-04-11T14:00:31.897Z,26.80
2018-04-11T14:02:58.473Z,22.77
2018-04-11T14:05:25.417Z,21.87
2018-04-11T14:07:51.989Z,20.20
2018-04-11T14:10:18.590Z,18.27
2018-04-11T14:12:45.173Z,21.87
2018-04-11T14:15:11.761Z,19.80
2018-04-11T14:17:38.339Z,19.77
2018-04-11T14:20:04.929Z,20.50
2018-04-11T14:22:31.505Z,18.40
2018-04-11T14:24:58.145Z,19.10
2018-04-11T14:27:24.737Z,18.60
2018-04-11T14:29:51.315Z,17.07
2018-04-11T14:32:17.905Z,19.70
2018-04-11T14:34:44.483Z,16.23
2018-04-11T14:37:11.062Z,16.73
2018-04-11T14:39:37.641Z,16.33
2018-04-11T14:42:04.269Z,16.00
2018-04-11T14:44:30.883Z,17.00
2018-04-11T14:46:57.453Z,15.13
2018-04-11T14:49:24.062Z,11.93
2018-04-11T14:51:50.641Z,12.57
2018-04-11T14:54:17.243Z,13.70
2018-04-11T14:56:43.831Z,15.90
2018-04-11T14:59:10.413Z,16.67
2018-04-11T15:01:36.990Z,15.03
2018-04-11T15:04:03.569Z,17.93
2018-04-11T15:06:30.146Z,16.67
2018-04-11T15:08:56.737Z,14.40
2018-04-11T15:11:23.346Z,13.50
2018-04-11T15:13:49.897Z,13.70
2018-04-11T15:16:16.505Z,12.77
2018-04-11T15:18:43.087Z,14.17
2018-04-11T15:21:09.981Z,12.17
2018-04-11T15:23:36.554Z,11.80
2018-04-11T15:26:03.125Z,11.03
2018-04-11T15:28:29.709Z,11.33
2018-04-11T15:30:56.309Z,10.07
2018-04-11T15:33:23.186Z,9.53
2018-04-11T15:35:49.826Z,9.90
2018-04-11T15:38:16.374Z,7.63
2018-04-11T15:40:42.949Z,7.73
2018-04-11T15:43:09.514Z,9.10
2018-04-11T15:45:36.117Z,9.00
2018-04-11T15:48:02.696Z,9.40
2018-04-11T15:50:29.257Z,8.97
2018-04-11T15:52:55.854Z,8.10
2018-04-11T15:55:22.437Z,8.70
2018-04-11T15:57:49.009Z,9.13
2018-04-11T16:00:15.590Z,10.30
2018-04-11T16:02:42.159Z,8.47
2018-04-11T16:05:08.753Z,10.27
2018-04-11T16:07:35.325Z,9.80
2018-04-11T16:10:01.985Z,12.00
2018-04-11T16:12:28.533Z,8.73
2018-04-11T16:14:55.102Z,9.27
2018-04-11T16:17:21.696Z,8.90
2018-04-11T16:19:48.258Z,8.13
2018-04-11T16:22:14.853Z,7.20
2018-04-11T16:24:41.420Z,7.80
2018-04-11T16:27:08.002Z,8.70
2018-04-11T16:29:34.585Z,7.00
2018-04-11T16:32:01.146Z,9.97
2018-04-11T16:34:27.730Z,7.93
2018-04-11T16:36:54.322Z,6.13
2018-04-11T16:39:20.899Z,5.90
2018-04-11T16:41:47.466Z,6.80
2018-04-11T16:44:14.071Z,5.80
2018-04-11T16:46:40.741Z,6.67
2018-04-11T16:49:07.350Z,5.73
2018-04-11T16:51:33.906Z,5.30
2018-04-11T16:54:00.481Z,4.70
2018-04-11T16:56:27.057Z,4.47
2018-04-11T16:58:53.625Z,4.70
2018-04-11T17:01:20.200Z,5.83
2018-04-11T17:03:46.766Z,5.07
2018-04-11T17:06:13.347Z,6.20
2018-04-11T17:08:39.897Z,5.97
2018-04-11T17:11:06.491Z,4.63
2018-04-11T17:13:33.053Z,4.80
2018-04-11T17:15:59.627Z,4.57
2018-04-11T17:18:26.214Z,4.90
2018-04-11T17:20:58.682Z,4.73
2018-04-11T17:23:31.285Z,4.30
2018-04-11T17:26:03.725Z,3.93
2018-04-11T17:28:36.247Z,4.03
2018-04-11T17:31:19.582Z,4.50
2018-04-11T17:33:46.150Z,3.97
2018-04-11T17:36:12.720Z,4.37
2018-04-11T17:38:39.303Z,4.63
2018-04-11T17:41:05.878Z,4.47
2018-04-11T17:43:32.499Z,4.37
2018-04-11T17:45:59.073Z,4.60
2018-04-11T17:48:25.696Z,4.63
2018-04-11T17:50:52.284Z,4.67
2018-04-11T17:53:18.853Z,4.80
2018-04-11T17:55:45.438Z,4.33
2018-04-11T17:58:12.029Z,4.33
2018-04-11T18:00:38.609Z,6.00
2018-04-11T18:03:05.197Z,4.80
2018-04-11T18:05:31.774Z,9.13
2018-04-11T18:07:58.500Z,5.23
2018-04-11T18:10:25.118Z,5.43
2018-04-11T18:12:55.002Z,4.73
2018-04-11T18:15:21.958Z,4.40
2018-04-11T18:17:48.621Z,4.17
2018-04-11T18:20:16.309Z,4.20
2018-04-11T18:22:42.877Z,5.10
2018-04-11T18:25:12.721Z,4.40
2018-04-11T18:27:40.454Z,5.00
2018-04-11T18:30:07.046Z,6.77
2018-04-11T18:32:34.885Z,5.90
2018-04-11T18:35:01.462Z,4.40
2018-04-11T18:37:30.299Z,6.10
2018-04-11T18:39:56.869Z,8.33
2018-04-11T18:42:23.458Z,4.40
2018-04-11T18:44:50.089Z,5.07
2018-04-11T18:47:16.710Z,5.23
2018-04-11T18:49:43.265Z,4.83
2018-04-11T18:52:09.838Z,4.60
2018-04-11T18:54:36.408Z,5.33
2018-04-11T18:57:02.978Z,5.77
2018-04-11T18:59:29.556Z,6.70
2018-04-11T19:01:56.142Z,5.10
2018-04-11T19:04:22.710Z,4.80
2018-04-11T19:06:49.542Z,4.63
2018-04-11T19:09:16.177Z,8.83
2018-04-11T19:11:42.745Z,5.43
2018-04-11T19:14:09.334Z,6.53
2018-04-11T19:16:35.907Z,4.87
2018-04-11T19:19:02.489Z,5.30
2018-04-11T19:21:29.138Z,4.97
2018-04-11T19:23:55.883Z,9.37
2018-04-11T19:26:22.461Z,5.60
2018-04-11T19:28:49.062Z,7.60
2018-04-11T19:31:15.642Z,5.50
2018-04-11T19:33:42.218Z,6.00
2018-04-11T19:36:08.795Z,6.40
2018-04-11T19:38:35.381Z,6.20
2018-04-11T19:41:01.957Z,6.20
2018-04-11T19:43:28.528Z,6.03
2018-04-11T19:45:55.122Z,12.43
2018-04-11T19:48:21.741Z,6.27
2018-04-11T19:50:48.321Z,5.50
2018-04-11T19:53:15.080Z,7.00
2018-04-11T19:55:41.641Z,6.83
2018-04-11T19:58:08.216Z,6.53
2018-04-11T20:00:34.796Z,9.23
2018-04-11T20:03:01.390Z,11.10
2018-04-11T20:05:28.076Z,7.30
2018-04-11T20:07:54.761Z,9.53
2018-04-11T20:10:21.317Z,8.67
2018-04-11T20:12:47.927Z,9.83
2018-04-11T20:15:16.193Z,14.63
2018-04-11T20:17:42.870Z,6.60
2018-04-11T20:20:09.557Z,7.37
2018-04-11T20:22:36.155Z,8.20
2018-04-11T20:25:02.833Z,12.20
2018-04-11T20:27:29.535Z,6.73
2018-04-11T20:29:56.226Z,8.30
2018-04-11T20:32:23.325Z,8.00
2018-04-11T20:34:49.892Z,6.63
2018-04-11T20:37:17.197Z,7.07
2018-04-11T20:39:43.816Z,6.67
2018-04-11T20:42:10.463Z,7.07
2018-04-11T20:44:37.030Z,8.50
2018-04-11T20:47:03.611Z,7.00
2018-04-11T20:49:30.205Z,7.13
2018-04-11T20:51:56.791Z,9.37
2018-04-11T20:54:23.431Z,8.60
2018-04-11T20:56:50.007Z,7.70
2018-04-11T20:59:17.072Z,7.77
2018-04-11T21:01:43.637Z,7.87
2018-04-11T21:04:10.217Z,10.50
2018-04-11T21:06:36.794Z,10.60
2018-04-11T21:09:03.370Z,11.77
2018-04-11T21:11:29.940Z,9.47
2018-04-11T21:13:56.520Z,10.90
2018-04-11T21:16:23.087Z,11.07
2018-04-11T21:18:49.670Z,12.70
2018-04-11T21:21:16.242Z,10.20
2018-04-11T21:23:42.818Z,18.90
2018-04-11T21:26:09.393Z,17.00
2018-04-11T21:28:35.972Z,14.07
2018-04-11T21:31:02.558Z,15.80
2018-04-11T21:33:29.137Z,14.53
2018-04-11T21:35:55.710Z,16.20
2018-04-11T21:38:22.277Z,11.80
2018-04-11T21:40:48.857Z,17.90
2018-04-11T21:43:15.457Z,12.60
2018-04-11T21:45:42.033Z,11.33
2018-04-11T21:48:08.601Z,9.60
2018-04-11T21:50:35.183Z,12.07
2018-04-11T21:53:01.757Z,11.50
2018-04-11T21:55:28.357Z,12.83
2018-04-11T21:57:54.940Z,10.10
2018-04-11T22:00:21.513Z,11.20
2018-04-11T22:02:48.080Z,11.87
2018-04-11T22:05:14.658Z,13.30
2018-04-11T22:07:41.245Z,13.20
2018-04-11T22:10:08.205Z,11.60
2018-04-11T22:12:34.762Z,9.53
2018-04-11T22:15:01.338Z,13.27
2018-04-11T22:17:27.925Z,9.70
2018-04-11T22:19:54.493Z,10.20
2018-04-11T22:22:21.076Z,8.10
2018-04-11T22:24:47.632Z,11.50
2018-04-11T22:27:14.209Z,9.93
2018-04-11T22:29:40.782Z,9.07
2018-04-11T22:32:07.346Z,9.80
2018-04-11T22:34:34.216Z,8.40
2018-04-11T22:37:00.785Z,10.30
2018-04-11T22:39:27.358Z,8.90
2018-04-11T22:41:53.925Z,11.10
2018-04-11T22:44:20.506Z,8.33
2018-04-11T22:46:47.077Z,12.20
2018-04-11T22:49:13.657Z,12.10
2018-04-11T22:51:40.240Z,9.07
2018-04-11T22:54:06.802Z,8.90
2018-04-11T22:56:33.370Z,8.03
2018-04-11T22:58:59.943Z,8.67
2018-04-11T23:01:26.556Z,13.70
2018-04-11T23:03:53.114Z,10.83
2018-04-11T23:06:19.694Z,12.23
2018-04-11T23:08:46.269Z,9.97
2018-04-11T23:11:12.856Z,11.90
2018-04-11T23:13:39.425Z,10.43
2018-04-11T23:16:05.997Z,8.73
2018-04-11T23:18:32.593Z,8.93
2018-04-11T23:20:59.182Z,10.17
2018-04-11T23:23:25.743Z,8.63
2018-04-11T23:25:52.349Z,10.27
2018-04-11T23:28:18.919Z,9.40
2018-04-11T23:30:45.477Z,8.00
2018-04-11T23:33:12.058Z,9.03
2018-04-11T23:35:38.634Z,8.50
2018-04-11T23:38:05.214Z,14.93
2018-04-11T23:40:31.777Z,7.70
2018-04-11T23:42:58.359Z,8.90
2018-04-11T23:45:24.937Z,11.17
2018-04-11T23:47:51.508Z,8.10
2018-04-11T23:50:18.081Z,8.50
2018-04-11T23:52:44.661Z,10.20
2018-04-11T23:55:11.233Z,7.87
2018-04-11T23:57:37.809Z,12.83
